createdAt,value
2018-03-06T00:02:03.477Z,50.38
2018-03-06T00:04:31.648Z,46.53
2018-03-06T00:06:59.826Z,44.65
2018-03-06T00:09:27.996Z,47.45
2018-03-06T00:11:56.889Z,47.03
2018-03-06T00:14:25.119Z,43.50
2018-03-06T00:16:53.178Z,39.35
2018-03-06T00:19:21.946Z,40.53
2018-03-06T00:21:50.104Z,42.85
2018-03-06T00:24:18.164Z,42.75
2018-03-06T00:26:47.195Z,41.33
2018-03-06T00:29:15.123Z,42.08
2018-03-06T00:31:43.194Z,39.80
2018-03-06T00:34:11.265Z,39.08
2018-03-06T00:36:40.160Z,38.80
2018-03-06T00:39:08.944Z,37.28
2018-03-06T00:41:37.731Z,34.13
2018-03-06T00:44:05.909Z,35.35
2018-03-06T00:46:34.090Z,32.40
2018-03-06T00:49:03.276Z,31.48
2018-03-06T00:51:31.273Z,32.92
2018-03-06T00:53:59.429Z,31.50
2018-03-06T00:56:27.529Z,30.50
2018-03-06T00:58:55.666Z,32.67
2018-03-06T01:01:23.841Z,32.17
2018-03-06T01:03:52.009Z,34.20
2018-03-06T01:06:20.808Z,35.53
2018-03-06T01:08:48.969Z,34.55
2018-03-06T01:11:17.974Z,36.83
2018-03-06T01:13:46.149Z,36.75
2018-03-06T01:16:14.720Z,38.55
2018-03-06T01:18:43.510Z,41.45
2018-03-06T01:21:12.502Z,39.78
2018-03-06T01:23:41.393Z,37.58
2018-03-06T01:26:09.461Z,38.88
2018-03-06T01:28:38.247Z,41.05
2018-03-06T01:31:06.427Z,39.17
2018-03-06T01:33:34.495Z,40.88
2018-03-06T01:36:02.780Z,38.10
2018-03-06T01:38:30.947Z,32.83
2018-03-06T01:40:59.734Z,37.67
2018-03-06T01:43:28.529Z,34.15
2018-03-06T01:45:56.455Z,36.65
2018-03-06T01:48:24.664Z,38.72
2018-03-06T01:50:53.553Z,39.20
2018-03-06T01:53:21.728Z,37.13
2018-03-06T01:55:49.902Z,41.40
2018-03-06T01:58:18.685Z,35.70
2018-03-06T02:00:46.861Z,33.67
2018-03-06T02:03:15.648Z,37.55
2018-03-06T02:05:43.717Z,34.72
2018-03-06T02:08:11.903Z,36.40
2018-03-06T02:10:40.179Z,33.80
2018-03-06T02:13:09.068Z,33.35
2018-03-06T02:15:37.242Z,34.63
2018-03-06T02:18:05.416Z,36.20
2018-03-06T02:20:34.408Z,34.40
2018-03-06T02:23:03.302Z,33.25
2018-03-06T02:25:31.456Z,39.65
2018-03-06T02:28:00.356Z,38.30
2018-03-06T02:30:28.422Z,34.58
2018-03-06T02:32:57.426Z,32.42
2018-03-06T02:35:26.419Z,33.45
2018-03-06T02:37:55.193Z,35.88
2018-03-06T02:40:23.380Z,33.97
2018-03-06T02:42:51.438Z,32.22
2018-03-06T02:45:19.406Z,34.90
2018-03-06T02:47:47.585Z,31.20
2018-03-06T02:50:15.766Z,31.73
2018-03-06T02:52:43.930Z,27.65
2018-03-06T02:55:12.113Z,28.52
2018-03-06T02:57:40.994Z,26.70
2018-03-06T03:00:09.887Z,24.75
2018-03-06T03:02:38.878Z,26.37
2018-03-06T03:05:06.945Z,27.17
2018-03-06T03:07:35.119Z,27.08
2018-03-06T03:10:04.009Z,26.17
2018-03-06T03:12:32.182Z,25.50
2018-03-06T03:15:00.367Z,25.23
2018-03-06T03:17:28.678Z,25.05
2018-03-06T03:19:56.811Z,25.98
2018-03-06T03:22:25.811Z,24.50
2018-03-06T03:24:54.802Z,24.92
2018-03-06T03:27:22.975Z,22.87
2018-03-06T03:29:51.866Z,23.83
2018-03-06T03:32:20.745Z,26.75
2018-03-06T03:34:49.639Z,25.83
2018-03-06T03:37:20.584Z,27.27
2018-03-06T03:39:49.468Z,25.50
2018-03-06T03:42:17.794Z,25.23
2018-03-06T03:44:45.912Z,24.50
2018-03-06T03:47:13.995Z,25.85
2018-03-06T03:49:42.885Z,26.87
2018-03-06T03:52:11.059Z,25.98
2018-03-06T03:54:39.231Z,25.70
2018-03-06T03:57:08.116Z,25.40
2018-03-06T03:59:36.283Z,24.90
2018-03-06T04:02:04.468Z,25.73
2018-03-06T04:04:33.353Z,23.75
2018-03-06T04:07:02.240Z,23.00
2018-03-06T04:09:30.415Z,21.73
2018-03-06T04:11:59.416Z,21.73
2018-03-06T04:14:28.300Z,23.92
2018-03-06T04:16:57.191Z,23.27
2018-03-06T04:19:25.360Z,23.73
2018-03-06T04:21:53.542Z,22.00
2018-03-06T04:24:22.437Z,19.90
2018-03-06T04:26:50.606Z,23.73
2018-03-06T04:29:19.490Z,23.23
2018-03-06T04:31:48.182Z,22.98
2018-03-06T04:34:16.242Z,23.02
2018-03-06T04:36:45.144Z,22.13
2018-03-06T04:39:14.135Z,24.30
2018-03-06T04:41:43.015Z,23.58
2018-03-06T04:44:11.805Z,23.77
2018-03-06T04:46:39.976Z,23.40
2018-03-06T04:49:08.152Z,25.62
2018-03-06T04:51:36.218Z,21.60
2018-03-06T04:54:05.008Z,25.90
2018-03-06T04:56:33.194Z,26.27
2018-03-06T04:59:01.253Z,23.40
2018-03-06T05:01:29.435Z,24.48
2018-03-06T05:03:58.421Z,20.98
2018-03-06T05:06:26.494Z,21.33
2018-03-06T05:08:54.560Z,23.08
2018-03-06T05:11:22.632Z,21.85
2018-03-06T05:13:50.810Z,22.62
2018-03-06T05:16:19.502Z,25.80
2018-03-06T05:18:47.698Z,24.25
2018-03-06T05:21:17.326Z,28.00
2018-03-06T05:23:45.456Z,23.70
2018-03-06T05:26:13.515Z,26.40
2018-03-06T05:28:41.693Z,24.77
2018-03-06T05:31:09.866Z,25.83
2018-03-06T05:33:38.048Z,24.10
2018-03-06T05:36:06.823Z,23.70
2018-03-06T05:38:34.895Z,25.37
2018-03-06T05:41:03.181Z,27.25
2018-03-06T05:43:31.344Z,28.77
2018-03-06T05:45:59.522Z,24.45
2018-03-06T05:48:27.589Z,25.40
2018-03-06T05:50:56.490Z,25.80
2018-03-06T05:53:25.780Z,26.15
2018-03-06T05:55:53.963Z,25.58
2018-03-06T05:58:22.028Z,24.42
2018-03-06T06:00:51.941Z,21.77
2018-03-06T06:03:20.009Z,23.62
2018-03-06T06:05:48.197Z,22.42
2018-03-06T06:08:17.077Z,23.98
2018-03-06T06:10:45.860Z,24.52
2018-03-06T06:13:13.930Z,28.38
2018-03-06T06:15:42.574Z,24.98
2018-03-06T06:18:10.792Z,24.10
2018-03-06T06:20:38.968Z,25.35
2018-03-06T06:23:07.034Z,25.62
2018-03-06T06:25:35.003Z,25.60
2018-03-06T06:28:03.076Z,26.00
2018-03-06T06:30:31.041Z,24.90
2018-03-06T06:32:59.937Z,25.65
2018-03-06T06:35:28.004Z,26.50
2018-03-06T06:37:56.074Z,23.85
2018-03-06T06:40:25.079Z,25.83
2018-03-06T06:42:53.854Z,25.15
2018-03-06T06:45:21.938Z,22.55
2018-03-06T06:47:50.098Z,23.80
2018-03-06T06:50:18.067Z,22.80
2018-03-06T06:52:46.150Z,26.85
2018-03-06T06:55:14.417Z,24.75
2018-03-06T06:57:42.592Z,26.10
2018-03-06T07:00:10.659Z,25.80
2018-03-06T07:02:38.832Z,23.98
2018-03-06T07:05:07.113Z,25.85
2018-03-06T07:07:35.316Z,22.25
2018-03-06T07:10:04.273Z,24.20
2018-03-06T07:12:32.243Z,23.30
2018-03-06T07:15:00.213Z,25.20
2018-03-06T07:17:28.385Z,23.08
2018-03-06T07:19:56.353Z,23.80
2018-03-06T07:22:24.428Z,22.25
2018-03-06T07:24:52.598Z,23.92
2018-03-06T07:27:20.672Z,24.25
2018-03-06T07:29:48.740Z,21.80
2018-03-06T07:32:16.824Z,22.55
2018-03-06T07:34:44.988Z,21.27
2018-03-06T07:37:13.170Z,21.80
2018-03-06T07:39:41.344Z,23.52
2018-03-06T07:42:09.508Z,25.10
2018-03-06T07:44:37.678Z,22.55
2018-03-06T07:47:06.058Z,22.33
2018-03-06T07:49:34.128Z,23.12
2018-03-06T07:52:02.199Z,23.02
2018-03-06T07:54:30.684Z,21.58
2018-03-06T07:56:58.864Z,19.92
2018-03-06T07:59:26.925Z,23.35
2018-03-06T08:01:54.995Z,21.35
2018-03-06T08:04:23.168Z,19.60
2018-03-06T08:06:51.354Z,21.12
2018-03-06T08:09:20.847Z,20.02
2018-03-06T08:11:49.946Z,21.60
2018-03-06T08:14:18.012Z,19.73
2018-03-06T08:16:46.185Z,20.98
2018-03-06T08:19:14.372Z,19.73
2018-03-06T08:21:42.430Z,21.48
2018-03-06T08:24:10.616Z,18.73
2018-03-06T08:26:38.789Z,19.73
2018-03-06T08:29:08.386Z,22.80
2018-03-06T08:31:36.460Z,21.62
2018-03-06T08:34:04.641Z,20.83
2018-03-06T08:36:32.814Z,20.17
2018-03-06T08:39:00.979Z,22.35
2018-03-06T08:41:29.152Z,21.37
2018-03-06T08:43:57.116Z,25.45
2018-03-06T08:46:25.302Z,19.27
2018-03-06T08:48:53.578Z,20.37
2018-03-06T08:51:21.536Z,20.02
2018-03-06T08:53:50.636Z,22.90
2018-03-06T08:56:18.919Z,23.10
2018-03-06T08:58:47.095Z,21.12
2018-03-06T09:01:15.154Z,21.77
2018-03-06T09:03:43.248Z,20.70
2018-03-06T09:06:12.112Z,21.15
2018-03-06T09:08:40.182Z,20.90
2018-03-06T09:11:08.153Z,18.12
2018-03-06T09:13:36.971Z,19.20
2018-03-06T09:16:05.836Z,23.45
2018-03-06T09:18:34.617Z,22.15
2018-03-06T09:21:02.801Z,20.98
2018-03-06T09:23:31.066Z,22.60
2018-03-06T09:25:59.138Z,22.27
2018-03-06T09:28:27.213Z,20.40
2018-03-06T09:30:55.394Z,20.58
2018-03-06T09:33:23.457Z,21.42
2018-03-06T09:35:51.524Z,21.52
2018-03-06T09:38:19.595Z,21.37
2018-03-06T09:40:47.674Z,22.08
2018-03-06T09:43:15.845Z,22.15
2018-03-06T09:45:43.910Z,22.25
2018-03-06T09:48:11.994Z,22.45
2018-03-06T09:50:40.782Z,23.40
2018-03-06T09:53:09.356Z,24.02
2018-03-06T09:55:38.254Z,25.00
2018-03-06T09:58:06.427Z,23.52
2018-03-06T10:00:34.593Z,23.38
2018-03-06T10:03:02.698Z,24.02
2018-03-06T10:05:30.733Z,24.85
2018-03-06T10:07:58.909Z,28.10
2018-03-06T10:10:27.909Z,27.73
2018-03-06T10:12:55.969Z,28.75
2018-03-06T10:15:24.874Z,24.67
2018-03-06T10:17:53.034Z,25.12
2018-03-06T10:20:22.037Z,25.30
2018-03-06T10:22:50.198Z,29.83
2018-03-06T10:25:18.269Z,26.83
2018-03-06T10:27:46.442Z,27.92
2018-03-06T10:30:14.628Z,28.90
2018-03-06T10:32:42.794Z,27.33
2018-03-06T10:35:10.863Z,30.67
2018-03-06T10:37:38.937Z,29.70
2018-03-06T10:40:07.719Z,28.98
2018-03-06T10:42:35.904Z,29.95
2018-03-06T10:45:03.967Z,30.33
2018-03-06T10:47:32.258Z,32.00
2018-03-06T10:50:00.362Z,28.25
2018-03-06T10:52:28.495Z,32.38
2018-03-06T10:54:56.662Z,32.30
2018-03-06T10:57:24.831Z,30.20
2018-03-06T10:59:53.011Z,29.08
2018-03-06T11:05:20.641Z,33.15
2018-03-06T11:07:48.760Z,32.00
2018-03-06T11:10:17.904Z,31.10
2018-03-06T11:12:46.025Z,31.90
2018-03-06T11:15:14.882Z,29.77
2018-03-06T11:17:42.989Z,32.30
2018-03-06T11:20:11.070Z,35.35
2018-03-06T11:22:40.679Z,30.52
2018-03-06T11:25:08.736Z,32.25
2018-03-06T11:27:36.819Z,29.80
2018-03-06T11:30:05.696Z,28.52
2018-03-06T11:32:33.667Z,29.10
2018-03-06T11:35:01.744Z,32.22
2018-03-06T11:37:29.922Z,32.72
2018-03-06T11:39:58.697Z,32.60
2018-03-06T11:42:26.885Z,29.05
2018-03-06T11:44:54.943Z,30.70
2018-03-06T11:47:23.014Z,28.80
2018-03-06T11:49:51.100Z,30.23
2018-03-06T11:52:19.155Z,31.77
2018-03-06T11:54:47.237Z,29.50
2018-03-06T11:57:16.731Z,28.55
2018-03-06T11:59:44.807Z,28.65
2018-03-06T12:02:12.991Z,30.35
2018-03-06T12:04:41.872Z,30.55
2018-03-06T12:07:10.187Z,32.17
2018-03-06T12:09:38.321Z,30.67
2018-03-06T12:12:06.492Z,30.88
2018-03-06T12:14:35.185Z,30.05
2018-03-06T12:17:03.462Z,30.20
2018-03-06T12:19:32.852Z,30.67
2018-03-06T12:22:01.036Z,31.10
2018-03-06T12:24:29.099Z,30.67
2018-03-06T12:26:58.091Z,28.60
2018-03-06T12:29:26.276Z,29.40
2018-03-06T12:31:54.347Z,31.23
2018-03-06T12:34:22.405Z,32.05
2018-03-06T12:36:50.536Z,29.58
2018-03-06T12:39:18.654Z,30.65
2018-03-06T12:41:46.720Z,27.55
2018-03-06T12:44:14.906Z,30.58
2018-03-06T12:46:43.694Z,26.10
2018-03-06T12:49:11.753Z,24.33
2018-03-06T12:51:39.822Z,25.30
2018-03-06T12:54:07.900Z,24.35
2018-03-06T12:56:36.081Z,24.05
2018-03-06T12:59:04.195Z,26.95
2018-03-06T13:01:32.325Z,26.62
2018-03-06T13:04:00.497Z,28.38
2018-03-06T13:06:28.670Z,29.00
2018-03-06T13:08:56.838Z,31.15
2018-03-06T13:11:25.017Z,29.73
2018-03-06T13:13:53.192Z,30.88
2018-03-06T13:16:21.355Z,29.30
2018-03-06T13:18:50.256Z,28.52
2018-03-06T13:21:18.314Z,30.35
2018-03-06T13:23:46.397Z,30.15
2018-03-06T13:26:14.422Z,33.70
2018-03-06T13:28:42.532Z,34.15
2018-03-06T13:31:12.134Z,36.10
2018-03-06T13:33:41.849Z,38.55
2018-03-06T13:36:10.020Z,38.33
2018-03-06T13:38:38.192Z,35.00
2018-03-06T13:41:06.478Z,37.70
2018-03-06T13:43:34.645Z,37.30
2018-03-06T13:46:05.337Z,37.65
2018-03-06T13:48:33.342Z,34.88
2018-03-06T13:51:04.077Z,31.62
2018-03-06T13:53:32.875Z,35.78
2018-03-06T13:56:00.934Z,36.25
2018-03-06T13:58:29.112Z,36.15
2018-03-06T14:00:57.798Z,38.22
2018-03-06T14:03:25.867Z,36.10
2018-03-06T14:05:53.947Z,34.85
2018-03-06T14:08:22.109Z,37.90
2018-03-06T14:10:50.178Z,34.80
2018-03-06T14:13:18.254Z,34.60
2018-03-06T14:15:46.834Z,35.92
2018-03-06T14:18:15.010Z,32.47
2018-03-06T14:20:43.810Z,35.38
2018-03-06T14:23:12.101Z,34.08
2018-03-06T14:25:40.965Z,32.72
2018-03-06T14:28:09.043Z,30.98
2018-03-06T14:30:37.206Z,33.38
2018-03-06T14:33:05.391Z,31.40
2018-03-06T14:35:33.552Z,32.20
2018-03-06T14:38:02.666Z,32.40
2018-03-06T14:40:30.832Z,31.70
2018-03-06T14:42:58.891Z,30.27
2018-03-06T14:45:26.963Z,31.95
2018-03-06T14:47:55.139Z,34.38
2018-03-06T14:50:23.207Z,34.85
2018-03-06T14:52:51.383Z,34.58
2018-03-06T14:55:19.557Z,36.72
2018-03-06T14:57:47.739Z,33.17
2018-03-06T15:00:15.903Z,34.63
2018-03-06T15:02:43.975Z,35.83
2018-03-06T15:05:12.458Z,34.05
2018-03-06T15:07:40.625Z,34.10
2018-03-06T15:10:09.426Z,35.45
2018-03-06T15:12:37.591Z,35.15
2018-03-06T15:15:05.663Z,35.08
2018-03-06T15:17:33.836Z,36.95
2018-03-06T15:20:02.121Z,37.85
2018-03-06T15:22:30.285Z,42.20
2018-03-06T15:24:58.353Z,39.80
2018-03-06T15:27:27.358Z,37.75
2018-03-06T15:29:55.420Z,41.67
2018-03-06T15:32:23.486Z,36.97
2018-03-06T15:34:51.571Z,38.40
2018-03-06T15:37:20.345Z,40.63
2018-03-06T15:39:48.464Z,35.72
2018-03-06T15:42:16.554Z,37.33
2018-03-06T15:44:44.663Z,36.35
2018-03-06T15:47:12.836Z,37.17
2018-03-06T15:49:41.007Z,36.03
2018-03-06T15:52:09.698Z,35.08
2018-03-06T15:54:37.973Z,38.70
2018-03-06T15:57:06.873Z,35.95
2018-03-06T15:59:36.273Z,36.42
2018-03-06T16:02:06.086Z,37.63
2018-03-06T16:04:34.559Z,37.80
2018-03-06T16:07:03.945Z,38.85
2018-03-06T16:09:33.956Z,40.58
2018-03-06T16:12:04.461Z,38.92
2018-03-06T16:14:33.306Z,37.97
2018-03-06T16:17:02.906Z,37.42
2018-03-06T16:19:31.695Z,36.55
2018-03-06T16:22:01.406Z,39.22
2018-03-06T16:24:30.186Z,36.97
2018-03-06T16:26:59.585Z,28.15
2018-03-06T16:29:29.305Z,28.60
2018-03-06T16:31:58.904Z,31.10
2018-03-06T16:34:28.196Z,28.35
2018-03-06T16:36:56.888Z,28.83
2018-03-06T16:39:26.461Z,32.00
2018-03-06T16:41:56.702Z,28.67
2018-03-06T16:44:26.332Z,30.92
2018-03-06T16:46:56.547Z,30.20
2018-03-06T16:49:26.339Z,29.80
2018-03-06T16:51:55.973Z,30.80
2018-03-06T16:54:24.866Z,30.10
2018-03-06T16:56:54.343Z,30.42
2018-03-06T16:59:23.865Z,28.92
2018-03-06T17:01:53.358Z,34.60
2018-03-06T17:04:23.179Z,33.13
2018-03-06T17:06:51.982Z,30.35
2018-03-06T17:09:21.454Z,33.85
2018-03-06T17:11:50.961Z,34.38
2018-03-06T17:14:21.414Z,38.05
2018-03-06T17:16:50.896Z,35.72
2018-03-06T17:19:20.307Z,37.10
2018-03-06T17:21:49.800Z,36.20
2018-03-06T17:24:19.218Z,36.13
2018-03-06T17:26:48.772Z,37.10
2018-03-06T17:29:18.328Z,33.65
2018-03-06T17:31:47.114Z,36.72
2018-03-06T17:34:16.517Z,38.47
2018-03-06T17:36:45.206Z,39.67
2018-03-06T17:39:14.697Z,37.00
2018-03-06T17:41:44.428Z,42.28
2018-03-06T17:44:15.553Z,40.28
2018-03-06T17:46:45.544Z,41.25
2018-03-06T17:49:14.483Z,37.50
2018-03-06T17:51:44.290Z,37.42
2018-03-06T17:54:14.613Z,40.75
2018-03-06T17:56:43.388Z,38.50
2018-03-06T17:59:13.337Z,39.15
2018-03-06T18:01:42.102Z,40.83
2018-03-06T18:04:10.788Z,38.72
2018-03-06T18:06:40.506Z,40.30
2018-03-06T18:09:09.863Z,88.05
2018-03-06T18:11:39.188Z,64.90
2018-03-06T18:14:08.593Z,45.97
2018-03-06T18:16:38.320Z,40.88
2018-03-06T18:19:07.701Z,37.08
2018-03-06T18:21:37.019Z,42.20
2018-03-06T18:24:05.895Z,39.60
2018-03-06T18:26:34.211Z,41.33
2018-03-06T18:29:03.244Z,40.17
2018-03-06T18:31:31.448Z,37.35
2018-03-06T18:33:59.616Z,36.30
2018-03-06T18:36:27.578Z,38.25
2018-03-06T18:38:55.652Z,36.85
2018-03-06T18:41:23.835Z,39.30
2018-03-06T18:43:51.905Z,38.55
2018-03-06T18:46:20.079Z,36.95
2018-03-06T18:48:48.241Z,43.42
2018-03-06T18:51:16.426Z,38.58
2018-03-06T18:53:44.602Z,40.05
2018-03-06T18:56:12.766Z,40.72
2018-03-06T18:58:41.039Z,39.15
2018-03-06T19:04:25.227Z,38.25
2018-03-06T19:07:07.396Z,36.53
2018-03-06T19:09:35.477Z,38.08
2018-03-06T19:12:03.655Z,38.83
2018-03-06T19:14:32.442Z,40.42
2018-03-06T19:17:00.932Z,38.55
2018-03-06T19:19:29.207Z,35.75
2018-03-06T19:21:57.470Z,34.20
2018-03-06T19:24:25.703Z,35.15
2018-03-06T19:26:54.286Z,36.35
2018-03-06T19:29:22.516Z,37.08
2018-03-06T19:31:50.683Z,33.15
2018-03-06T19:34:18.850Z,35.65
2018-03-06T19:36:47.027Z,36.50
2018-03-06T19:39:16.660Z,37.25
2018-03-06T19:41:45.534Z,35.67
2018-03-06T19:44:13.722Z,35.80
2018-03-06T19:46:42.593Z,39.60
2018-03-06T19:49:10.861Z,38.58
2018-03-06T19:51:39.041Z,37.38
2018-03-06T19:54:07.089Z,40.17
2018-03-06T19:56:36.010Z,35.63
2018-03-06T19:59:04.789Z,35.55
2018-03-06T20:01:32.853Z,36.22
2018-03-06T20:04:01.245Z,35.95
2018-03-06T20:06:29.420Z,34.08
2018-03-06T20:08:57.584Z,35.50
2018-03-06T20:11:26.472Z,34.00
2018-03-06T20:13:54.651Z,34.35
2018-03-06T20:16:23.433Z,32.60
2018-03-06T20:18:56.986Z,34.78
2018-03-06T20:21:26.031Z,34.58
2018-03-06T20:23:54.226Z,34.33
2018-03-06T20:26:23.146Z,34.65
2018-03-06T20:28:51.268Z,31.73
2018-03-06T20:31:24.877Z,33.22
2018-03-06T20:33:53.047Z,33.33
2018-03-06T20:36:21.212Z,35.83
2018-03-06T20:38:56.351Z,32.65
2018-03-06T20:41:24.633Z,34.90
2018-03-06T20:43:52.794Z,34.08
2018-03-06T20:46:26.357Z,31.62
2018-03-06T20:48:54.472Z,29.87
2018-03-06T20:51:22.538Z,32.75
2018-03-06T20:53:56.309Z,32.45
2018-03-06T20:56:25.441Z,29.17
2018-03-06T20:58:53.512Z,30.80
2018-03-06T21:01:22.604Z,31.37
2018-03-06T21:03:50.783Z,31.55
2018-03-06T21:06:20.299Z,29.37
2018-03-06T21:09:00.313Z,30.92
2018-03-06T21:11:28.510Z,28.67
2018-03-06T21:13:56.786Z,32.85
2018-03-06T21:16:25.064Z,34.60
2018-03-06T21:18:53.233Z,32.22
2018-03-06T21:21:23.970Z,33.00
2018-03-06T21:23:52.860Z,32.33
2018-03-06T21:26:20.928Z,32.20
2018-03-06T21:28:48.998Z,29.42
2018-03-06T21:31:17.277Z,28.30
2018-03-06T21:33:45.460Z,28.67
2018-03-06T21:36:13.623Z,28.35
2018-03-06T21:38:41.797Z,27.50
2018-03-06T21:41:10.177Z,27.85
2018-03-06T21:43:38.348Z,25.45
2018-03-06T21:46:06.633Z,25.92
2018-03-06T21:48:34.795Z,24.52
2018-03-06T21:51:03.075Z,27.70
2018-03-06T21:53:31.250Z,27.83
2018-03-06T21:55:59.430Z,24.40
2018-03-06T21:58:27.594Z,27.20
2018-03-06T22:00:55.663Z,23.90
2018-03-06T22:03:23.634Z,25.23
2018-03-06T22:05:51.816Z,25.73
2018-03-06T22:08:19.979Z,24.15
2018-03-06T22:10:48.049Z,25.88
2018-03-06T22:13:16.018Z,26.45
2018-03-06T22:15:44.195Z,26.85
2018-03-06T22:18:12.368Z,24.45
2018-03-06T22:20:40.543Z,24.33
2018-03-06T22:23:08.621Z,22.67
2018-03-06T22:25:36.683Z,22.52
2018-03-06T22:28:04.857Z,23.70
2018-03-06T22:30:33.039Z,24.55
2018-03-06T22:33:01.200Z,25.02
2018-03-06T22:35:29.377Z,24.98
2018-03-06T22:37:57.446Z,23.42
2018-03-06T22:40:25.620Z,25.60
2018-03-06T22:42:53.805Z,26.02
2018-03-06T22:45:21.966Z,24.05
2018-03-06T22:47:50.036Z,24.17
2018-03-06T22:50:18.107Z,27.20
2018-03-06T22:52:46.179Z,26.15
2018-03-06T22:55:14.466Z,24.77
2018-03-06T22:57:43.140Z,24.92
2018-03-06T23:00:12.063Z,26.98
2018-03-06T23:02:40.921Z,24.25
2018-03-06T23:05:08.993Z,25.17
2018-03-06T23:07:37.061Z,24.35
2018-03-06T23:10:05.305Z,25.40
2018-03-06T23:12:33.522Z,24.67
2018-03-06T23:15:01.685Z,23.55
2018-03-06T23:17:29.755Z,24.25
2018-03-06T23:19:58.036Z,24.50
2018-03-06T23:22:26.163Z,24.42
2018-03-06T23:24:54.485Z,23.73
2018-03-06T23:27:23.613Z,23.20
2018-03-06T23:29:52.469Z,23.17
2018-03-06T23:32:21.556Z,24.55
2018-03-06T23:34:50.053Z,25.80
2018-03-06T23:37:18.329Z,23.35
2018-03-06T23:39:49.226Z,22.00
2018-03-06T23:42:17.325Z,21.08
2018-03-06T23:44:45.711Z,21.60
2018-03-06T23:47:14.492Z,23.27
2018-03-06T23:49:42.691Z,22.92
2018-03-06T23:52:11.859Z,23.75
2018-03-06T23:54:40.151Z,21.98
2018-03-06T23:57:08.471Z,24.05
2018-03-06T23:59:36.657Z,23.17
